Time;durP1;ratioP1;P1;durP2;ratioP2;P2;SDS_P1;SDS_P2;PMS_P1;PMS_P2;Temp;Humidity;BMP_temperature;BMP_pressure;BME280_temperature;BME280_humidity;BME280_pressure;Samples;Min_cycle;Max_cycle;Signal;HPM_P1;HPM_P2
2022/04/24 00:01:17;;;;;;;7.57;5.60;;;;;;;13.33;46.79;100150.31;4949709;29;20031;-81
2022/04/24 00:03:42;;;;;;;6.40;5.10;;;;;;;13.32;46.76;100156.59;4951262;28;20594;-81
2022/04/24 00:06:08;;;;;;;5.40;4.90;;;;;;;13.29;47.46;100151.59;4948956;29;20109;-79
2022/04/24 00:08:33;;;;;;;6.53;5.65;;;;;;;13.26;47.37;100149.25;4950046;28;20062;-79
2022/04/24 00:10:59;;;;;;;6.82;5.43;;;;;;;13.21;46.92;100155.00;4951216;28;20030;-79
2022/04/24 00:13:24;;;;;;;5.60;5.10;;;;;;;13.19;47.79;100141.06;4949954;29;20042;-81
2022/04/24 00:15:50;;;;;;;5.88;5.28;;;;;;;13.17;47.61;100153.59;4949628;29;20019;-82
2022/04/24 00:18:16;;;;;;;5.90;5.40;;;;;;;13.12;48.14;100145.25;4950906;28;20030;-81
2022/04/24 00:20:43;;;;;;;6.75;5.53;;;;;;;13.04;48.08;100142.50;4949912;29;20043;-80
2022/04/24 00:23:08;;;;;;;6.72;5.97;;;;;;;13.02;47.89;100139.19;4950985;28;20362;-79
2022/04/24 00:25:33;;;;;;;6.25;5.65;;;;;;;12.98;48.50;100141.28;4949802;29;20357;-80
2022/04/24 00:28:00;;;;;;;6.38;5.78;;;;;;;12.97;48.57;100136.16;4949948;28;20513;-82
2022/04/24 00:30:26;;;;;;;6.40;5.80;;;;;;;12.90;48.15;100130.63;4950475;28;20027;-81
2022/04/24 00:32:52;;;;;;;6.38;5.72;;;;;;;12.89;48.59;100138.69;4965071;28;20023;-82
2022/04/24 00:35:20;;;;;;;8.27;5.82;;;;;;;12.81;48.74;100127.06;4948893;29;20066;-80
2022/04/24 00:37:56;;;;;;;7.75;5.82;;;;;;;12.77;48.75;100136.22;4958263;28;20031;-78
2022/04/24 00:40:22;;;;;;;6.90;6.20;;;;;;;12.73;48.79;100139.31;4950260;28;20479;-81
2022/04/24 00:42:50;;;;;;;6.45;5.85;;;;;;;12.68;49.21;100133.63;4948946;29;20085;-81
2022/04/24 00:45:18;;;;;;;6.70;6.00;;;;;;;12.64;49.52;100135.72;4950446;29;20024;-81
2022/04/24 00:47:45;;;;;;;9.32;6.50;;;;;;;12.61;49.56;100140.47;4947802;29;20028;-81
2022/04/24 00:50:11;;;;;;;8.85;6.18;;;;;;;12.52;49.65;100127.16;4960356;28;20031;-81
2022/04/24 00:52:37;;;;;;;6.97;6.22;;;;;;;12.47;49.81;100126.75;4965351;28;20395;-79
2022/04/24 00:55:06;;;;;;;7.22;6.07;;;;;;;12.38;50.03;100116.22;4948216;29;20023;-82
2022/04/24 00:57:32;;;;;;;7.10;6.40;;;;;;;12.39;50.24;100129.25;4950673;28;20035;-81
2022/04/24 00:59:57;;;;;;;6.38;5.78;;;;;;;12.34;50.18;100128.84;4981158;28;20044;-81
2022/04/24 01:02:23;;;;;;;7.38;6.40;;;;;;;12.33;49.94;100132.47;4952057;28;20208;-81
2022/04/24 01:04:51;;;;;;;10.45;6.30;;;;;;;12.28;50.24;100128.59;4952030;28;20019;-80
2022/04/24 01:07:17;;;;;;;7.55;5.95;;;;;;;12.21;50.72;100138.88;4953441;29;20027;-80
2022/04/24 01:09:42;;;;;;;7.10;6.40;;;;;;;12.18;50.54;100134.72;4952621;29;20038;-82
2022/04/24 01:12:08;;;;;;;6.93;6.32;;;;;;;12.15;50.45;100128.91;4953665;28;20905;-79
2022/04/24 01:14:34;;;;;;;6.85;6.25;;;;;;;12.07;51.22;100131.41;4953415;29;20032;-79
2022/04/24 01:17:06;;;;;;;8.02;6.63;;;;;;;12.00;51.20;100128.47;4951238;29;20031;-81
2022/04/24 01:19:32;;;;;;;6.80;6.20;;;;;;;12.03;51.56;100130.88;4967614;28;20039;-81
2022/04/24 01:21:58;;;;;;;8.88;6.30;;;;;;;11.98;51.56;100137.50;4953081;29;20161;-81
2022/04/24 01:24:29;;;;;;;7.18;6.47;;;;;;;11.90;51.70;100131.13;4967886;28;20015;-82
2022/04/24 01:26:55;;;;;;;7.75;6.22;;;;;;;11.84;51.23;100126.44;4953308;29;20766;-81
2022/04/24 01:29:21;;;;;;;9.35;6.60;;;;;;;11.88;51.61;100138.34;4952516;29;20027;-81
2022/04/24 01:31:49;;;;;;;7.22;6.50;;;;;;;11.85;51.66;100140.44;4951783;29;20038;-81
2022/04/24 01:34:16;;;;;;;7.03;6.32;;;;;;;11.78;51.63;100132.25;4983805;28;20030;-82
2022/04/24 01:36:41;;;;;;;6.88;6.28;;;;;;;11.76;52.25;100144.72;4966362;28;20059;-81
2022/04/24 01:39:08;;;;;;;6.90;6.30;;;;;;;11.71;52.08;100139.03;4951700;29;20486;-81
2022/04/24 01:41:34;;;;;;;7.30;6.60;;;;;;;11.63;52.29;100128.34;4968038;28;20525;-81
2022/04/24 01:44:00;;;;;;;7.30;6.57;;;;;;;11.67;52.03;100135.00;4953553;29;20039;-81
2022/04/24 01:46:26;;;;;;;7.00;6.30;;;;;;;11.62;52.45;100137.22;4953042;28;20074;-81
2022/04/24 01:48:52;;;;;;;7.30;6.60;;;;;;;11.55;52.44;100125.53;4951715;29;20019;-81
2022/04/24 01:51:17;;;;;;;7.68;6.97;;;;;;;11.53;52.60;100133.59;4952505;29;20031;-82
2022/04/24 01:53:44;;;;;;;7.60;6.57;;;;;;;11.45;53.05;100122.06;4953100;28;20031;-79
2022/04/24 01:56:11;;;;;;;7.28;6.57;;;;;;;11.51;53.19;100137.31;4953346;28;20106;-79
2022/04/24 01:58:37;;;;;;;8.77;6.82;;;;;;;11.47;53.34;100133.31;4952955;28;20042;-79
2022/04/24 02:01:04;;;;;;;7.60;6.72;;;;;;;11.44;53.01;100133.56;4950180;28;21000;-78
2022/04/24 02:03:31;;;;;;;7.15;6.53;;;;;;;11.37;53.04;100132.47;4966210;28;20031;-81
2022/04/24 02:05:57;;;;;;;7.72;6.50;;;;;;;11.33;53.08;100129.28;4962883;28;20467;-82
2022/04/24 02:08:23;;;;;;;7.72;7.03;;;;;;;11.35;52.98;100144.94;4952434;29;20118;-81
2022/04/24 02:10:51;;;;;;;7.68;6.95;;;;;;;11.29;52.99;100135.78;4953206;29;20182;-81
2022/04/24 02:13:17;;;;;;;7.95;7.13;;;;;;;11.24;53.66;100130.94;4945468;28;20066;-81
2022/04/24 02:15:43;;;;;;;7.78;6.90;;;;;;;11.23;53.63;100134.53;4953577;28;20483;-81
2022/04/24 02:18:09;;;;;;;8.20;6.88;;;;;;;11.25;53.97;100139.66;4967358;28;20035;-80
2022/04/24 02:20:35;;;;;;;8.23;7.43;;;;;;;11.16;53.46;100125.47;4950462;29;20035;-82
2022/04/24 02:23:01;;;;;;;7.03;6.43;;;;;;;11.15;53.92;100129.06;4951857;29;20039;-81
2022/04/24 02:25:27;;;;;;;9.13;7.32;;;;;;;11.16;53.69;100129.91;4952709;28;20403;-81
2022/04/24 02:27:54;;;;;;;7.38;6.68;;;;;;;11.14;53.99;100132.69;4951098;29;20368;-81
2022/04/24 02:30:24;;;;;;;8.57;7.25;;;;;;;11.16;54.02;100136.00;4953212;28;20046;-80
2022/04/24 02:32:50;;;;;;;8.27;7.40;;;;;;;11.12;53.84;100134.59;4952158;29;20039;-80
2022/04/24 02:35:16;;;;;;;7.90;7.10;;;;;;;11.06;53.89;100123.78;4951858;28;20031;-79
2022/04/24 02:37:45;;;;;;;7.88;7.15;;;;;;;11.05;53.97;100133.50;4947041;29;20136;-81
2022/04/24 02:40:11;;;;;;;8.15;7.35;;;;;;;11.05;54.04;100136.13;4951463;29;20027;-81
2022/04/24 02:42:37;;;;;;;8.30;7.50;;;;;;;11.04;54.24;100137.09;4951638;29;20031;-79
2022/04/24 02:45:07;;;;;;;8.82;7.93;;;;;;;11.02;54.12;100139.03;4952963;28;20019;-79
2022/04/24 02:47:33;;;;;;;7.80;7.10;;;;;;;11.02;54.14;100139.03;4951909;29;20102;-80
2022/04/24 02:49:59;;;;;;;8.23;7.43;;;;;;;11.02;54.51;100139.03;4952560;28;20115;-80
2022/04/24 02:52:24;;;;;;;9.85;8.07;;;;;;;10.98;54.14;100132.34;4952828;28;20027;-81
2022/04/24 02:54:50;;;;;;;8.63;7.82;;;;;;;10.99;54.34;100140.13;4949434;28;20019;-81
2022/04/24 02:57:15;;;;;;;8.70;7.90;;;;;;;10.98;54.52;100148.16;4952783;29;20027;-81
2022/04/24 02:59:50;;;;;;;8.68;7.88;;;;;;;10.94;54.81;100142.31;4951795;28;20402;-81
2022/04/24 03:02:16;;;;;;;8.45;7.65;;;;;;;10.91;55.18;100136.50;4951964;28;20050;-81
2022/04/24 03:04:42;;;;;;;9.02;8.23;;;;;;;10.89;54.73;100141.06;4950774;29;20023;-81
2022/04/24 03:07:08;;;;;;;8.48;7.70;;;;;;;10.87;54.78;100141.19;4951752;29;20387;-80
2022/04/24 03:09:33;;;;;;;9.90;8.90;;;;;;;10.85;55.10;100142.28;4950156;29;20039;-80
2022/04/24 03:11:59;;;;;;;9.48;8.57;;;;;;;10.90;55.27;100140.09;4952164;28;20445;-80
2022/04/24 03:14:25;;;;;;;9.75;8.85;;;;;;;10.84;55.57;100140.63;4951666;28;20406;-80
2022/04/24 03:16:51;;;;;;;9.00;8.15;;;;;;;10.84;55.06;100146.72;4950122;29;20019;-80
2022/04/24 03:19:17;;;;;;;9.55;8.32;;;;;;;10.83;55.30;100150.31;4951967;28;20030;-80
2022/04/24 03:21:42;;;;;;;11.48;9.30;;;;;;;10.81;55.41;100154.06;4952289;28;20031;-81
2022/04/24 03:24:08;;;;;;;9.40;8.50;;;;;;;10.79;55.70;100153.31;4949763;28;20046;-82
2022/04/24 03:26:33;;;;;;;10.45;9.43;;;;;;;10.76;55.39;100153.59;4951348;29;20553;-82
2022/04/24 03:28:59;;;;;;;9.88;8.98;;;;;;;10.76;55.56;100151.78;4951968;29;20338;-82
2022/04/24 03:31:24;;;;;;;10.70;9.10;;;;;;;10.73;55.68;100153.84;4951225;28;20035;-80
2022/04/24 03:33:52;;;;;;;10.07;8.82;;;;;;;10.66;55.99;100149.13;4951488;29;20030;-79
2022/04/24 03:36:18;;;;;;;9.85;8.85;;;;;;;10.63;55.71;100146.75;4951942;28;20049;-82
2022/04/24 03:38:43;;;;;;;10.13;9.13;;;;;;;10.60;55.71;100143.56;4951153;29;20395;-82
2022/04/24 03:41:09;;;;;;;10.57;9.57;;;;;;;10.56;56.17;100150.88;4949049;29;20035;-81
2022/04/24 03:43:34;;;;;;;11.98;9.60;;;;;;;10.51;56.28;100144.34;4950722;29;20031;-81
2022/04/24 03:45:59;;;;;;;9.85;8.90;;;;;;;10.54;56.07;100158.06;4950877;29;20038;-80
2022/04/24 03:48:25;;;;;;;10.10;9.10;;;;;;;10.51;56.74;100153.06;4951182;29;20039;-80
2022/04/24 03:50:51;;;;;;;10.52;9.23;;;;;;;10.44;56.58;100149.28;4950951;28;20471;-80
2022/04/24 03:53:18;;;;;;;10.85;9.75;;;;;;;10.39;56.78;100156.72;4951274;29;20396;-80
2022/04/24 03:55:45;;;;;;;11.20;9.45;;;;;;;10.38;57.16;100157.66;4951441;28;20015;-80
2022/04/24 03:58:11;;;;;;;11.00;9.90;;;;;;;10.31;57.24;100153.91;4944680;29;20035;-80
2022/04/24 04:00:36;;;;;;;10.55;9.38;;;;;;;10.28;57.45;100156.78;4948639;29;20066;-79
2022/04/24 04:03:02;;;;;;;10.43;9.43;;;;;;;10.23;57.77;100157.16;4965696;28;20676;-80
2022/04/24 04:05:27;;;;;;;10.48;9.45;;;;;;;10.19;57.33;100149.66;4948659;28;20036;-79
2022/04/24 04:07:53;;;;;;;10.75;9.40;;;;;;;10.20;57.67;100157.44;4949801;29;20395;-79
2022/04/24 04:10:19;;;;;;;11.68;9.73;;;;;;;10.13;58.44;100147.53;4950005;29;20042;-79
2022/04/24 04:12:44;;;;;;;10.90;9.80;;;;;;;10.12;58.04;100153.75;4948080;28;20035;-80
2022/04/24 04:15:10;;;;;;;10.55;9.55;;;;;;;10.09;58.27;100154.84;4951338;29;20031;-80
2022/04/24 04:17:35;;;;;;;15.68;10.05;;;;;;;10.05;58.66;100163.94;4950990;29;20614;-80
2022/04/24 04:20:01;;;;;;;11.00;9.90;;;;;;;10.01;58.79;100157.28;4950019;29;20031;-80
2022/04/24 04:22:27;;;;;;;11.25;10.05;;;;;;;9.97;59.21;100161.91;4949165;29;20383;-80
2022/04/24 04:24:52;;;;;;;11.85;10.25;;;;;;;9.93;59.17;100165.75;4951058;29;20071;-80
2022/04/24 04:27:19;;;;;;;11.07;9.90;;;;;;;9.89;59.57;100166.97;4965657;28;20117;-80
2022/04/24 04:29:45;;;;;;;12.80;10.05;;;;;;;9.88;59.53;100161.84;4946042;29;20055;-79
2022/04/24 04:32:11;;;;;;;11.65;10.45;;;;;;;9.83;60.04;100164.03;4950766;29;20027;-80
2022/04/24 04:34:37;;;;;;;12.85;9.85;;;;;;;9.81;60.02;100166.78;4950783;29;20023;-80
2022/04/24 04:37:07;;;;;;;11.02;9.90;;;;;;;9.76;60.46;100162.88;4950997;28;20041;-80
2022/04/24 04:39:32;;;;;;;11.50;10.30;;;;;;;9.71;60.07;100168.50;4951314;28;20097;-80
2022/04/24 04:41:58;;;;;;;11.52;10.43;;;;;;;9.75;60.01;100177.78;4950319;29;20035;-80
2022/04/24 04:44:23;;;;;;;12.55;10.10;;;;;;;9.68;60.37;100169.56;4951198;29;20035;-82
2022/04/24 04:46:49;;;;;;;12.10;9.80;;;;;;;9.70;60.82;100175.53;4947395;28;20031;-80
2022/04/24 04:49:14;;;;;;;11.52;10.25;;;;;;;9.64;60.89;100173.41;4947176;28;20023;-82
2022/04/24 04:51:46;;;;;;;11.02;9.77;;;;;;;9.64;60.77;100186.53;4965117;28;20117;-79
2022/04/24 04:54:12;;;;;;;12.20;9.88;;;;;;;9.63;61.02;100178.78;4964567;28;20422;-82
2022/04/24 04:56:37;;;;;;;15.75;10.13;;;;;;;9.58;61.33;100181.75;4949607;29;20024;-81
2022/04/24 04:59:03;;;;;;;10.98;9.75;;;;;;;9.55;61.62;100189.06;4950417;29;20407;-81
2022/04/24 05:01:28;;;;;;;12.45;10.18;;;;;;;9.56;61.70;100185.47;4964542;28;20462;-82
2022/04/24 05:03:53;;;;;;;10.63;9.63;;;;;;;9.52;61.55;100189.31;4950213;29;20475;-82
2022/04/24 05:06:18;;;;;;;10.98;9.88;;;;;;;9.49;61.91;100185.13;4949685;29;20020;-82
2022/04/24 05:08:44;;;;;;;10.63;9.63;;;;;;;9.50;62.04;100194.69;4948100;29;20023;-82
2022/04/24 05:11:10;;;;;;;11.65;9.90;;;;;;;9.48;62.40;100206.25;4950104;29;20038;-81
2022/04/24 05:13:35;;;;;;;12.95;10.20;;;;;;;9.46;62.36;100203.75;4950211;28;20038;-82
2022/04/24 05:16:00;;;;;;;11.48;10.27;;;;;;;9.43;62.04;100198.75;4948941;29;20023;-82
2022/04/24 05:18:26;;;;;;;11.23;9.73;;;;;;;9.47;62.20;100215.09;4949428;28;20668;-81
2022/04/24 05:20:52;;;;;;;11.40;9.43;;;;;;;9.47;62.43;100207.22;4949996;28;20036;-82
2022/04/24 05:23:17;;;;;;;11.48;9.82;;;;;;;9.48;62.05;100217.59;4948118;29;20050;-82
2022/04/24 05:25:43;;;;;;;10.77;9.27;;;;;;;9.45;62.43;100209.97;4948800;29;20031;-82
2022/04/24 05:28:08;;;;;;;10.93;9.63;;;;;;;9.47;62.12;100217.72;4949940;29;20037;-82
2022/04/24 05:30:33;;;;;;;10.68;9.57;;;;;;;9.46;62.52;100218.69;4949655;29;20032;-81
2022/04/24 05:32:59;;;;;;;11.07;9.98;;;;;;;9.49;62.99;100218.44;4949669;29;20887;-82
2022/04/24 05:35:24;;;;;;;11.52;9.80;;;;;;;9.48;62.85;100222.84;4950034;28;20099;-81
2022/04/24 05:37:51;;;;;;;10.60;9.50;;;;;;;9.49;62.63;100221.06;4948777;29;20031;-82
2022/04/24 05:40:17;;;;;;;10.80;9.63;;;;;;;9.49;62.62;100218.44;4962116;28;20027;-82
2022/04/24 05:42:49;;;;;;;11.77;8.80;;;;;;;9.53;62.39;100225.09;4949919;28;20108;-82
2022/04/24 05:45:18;;;;;;;11.55;9.77;;;;;;;9.54;62.84;100227.59;4947109;29;20035;-82
2022/04/24 05:47:44;;;;;;;11.73;8.90;;;;;;;9.54;62.39;100221.53;4953630;28;20027;-82
2022/04/24 05:50:09;;;;;;;11.75;8.40;;;;;;;9.59;62.07;100227.25;4951310;28;20023;-82
2022/04/24 05:52:34;;;;;;;11.38;9.63;;;;;;;9.58;62.52;100222.94;4952415;28;20082;-82
2022/04/24 05:55:00;;;;;;;12.50;9.13;;;;;;;9.62;62.26;100227.03;4951243;29;20031;-82
2022/04/24 05:57:25;;;;;;;13.10;9.18;;;;;;;9.64;62.45;100240.88;4952772;29;20081;-81
2022/04/24 05:59:52;;;;;;;9.65;8.68;;;;;;;9.64;62.34;100233.00;4952629;29;20043;-82
2022/04/24 06:02:17;;;;;;;13.35;9.07;;;;;;;9.70;62.34;100237.75;4953163;29;20027;-82
2022/04/24 06:04:46;;;;;;;10.82;9.10;;;;;;;9.73;62.53;100237.50;4952473;29;20070;-80
2022/04/24 06:07:12;;;;;;;10.20;8.85;;;;;;;9.76;62.08;100233.78;4967426;28;20039;-80
2022/04/24 06:09:42;;;;;;;9.75;8.75;;;;;;;9.75;61.58;100232.97;4953367;29;20035;-80
2022/04/24 06:12:08;;;;;;;11.23;8.15;;;;;;;9.82;61.23;100247.25;4950775;29;20039;-80
2022/04/24 06:14:34;;;;;;;10.13;9.02;;;;;;;9.84;61.88;100249.75;4952715;29;20892;-80
2022/04/24 06:17:00;;;;;;;9.73;8.82;;;;;;;9.85;61.54;100240.94;4952637;28;20114;-80
2022/04/24 06:19:26;;;;;;;10.60;8.90;;;;;;;9.89;61.21;100242.34;4952081;29;20059;-80
2022/04/24 06:21:55;;;;;;;9.40;8.38;;;;;;;9.92;61.27;100247.34;4952740;28;20023;-80
2022/04/24 06:24:21;;;;;;;11.18;8.52;;;;;;;9.97;61.04;100240.75;4952821;28;20471;-80
2022/04/24 06:26:47;;;;;;;9.25;8.35;;;;;;;10.02;61.01;100240.41;4951326;29;20035;-80
2022/04/24 06:29:12;;;;;;;9.10;8.20;;;;;;;10.05;61.33;100248.88;4952250;28;20494;-81
2022/04/24 06:31:39;;;;;;;10.23;9.23;;;;;;;10.09;61.19;100248.63;4951661;28;20409;-80
2022/04/24 06:34:05;;;;;;;9.63;8.63;;;;;;;10.14;61.00;100254.34;4950207;29;20483;-80
2022/04/24 06:36:31;;;;;;;10.73;8.52;;;;;;;10.18;60.56;100248.72;4953133;29;20035;-80
2022/04/24 06:38:56;;;;;;;10.55;8.80;;;;;;;10.21;60.60;100251.13;4952553;29;20132;-80
2022/04/24 06:41:22;;;;;;;11.00;8.85;;;;;;;10.27;60.94;100253.22;4951044;29;20406;-80
2022/04/24 06:43:47;;;;;;;9.85;8.75;;;;;;;10.33;60.43;100251.88;4950738;29;20399;-80
2022/04/24 06:46:13;;;;;;;10.23;8.88;;;;;;;10.37;59.42;100253.31;4954032;28;20479;-80
2022/04/24 06:48:47;;;;;;;9.43;8.45;;;;;;;10.46;59.83;100262.25;4948916;29;20023;-80
2022/04/24 06:51:13;;;;;;;9.65;8.65;;;;;;;10.48;59.55;100261.16;4951527;29;20031;-79
2022/04/24 06:53:44;;;;;;;9.65;8.02;;;;;;;10.49;59.46;100248.84;4952537;29;20034;-80
2022/04/24 06:56:10;;;;;;;12.13;8.23;;;;;;;10.61;59.72;100261.81;4952493;29;20031;-80
2022/04/24 06:58:37;;;;;;;12.38;8.68;;;;;;;10.65;58.93;100257.13;4972952;28;20031;-80
2022/04/24 07:01:03;;;;;;;9.98;8.80;;;;;;;10.72;58.25;100265.31;4952712;29;20031;-80
2022/04/24 07:03:31;;;;;;;9.13;8.23;;;;;;;10.79;58.01;100258.56;4981705;28;20049;-79
2022/04/24 07:05:57;;;;;;;11.43;8.63;;;;;;;10.84;57.87;100261.69;4951825;29;20031;-79
2022/04/24 07:08:24;;;;;;;9.93;9.00;;;;;;;10.89;58.06;100260.31;4952067;28;20038;-82
2022/04/24 07:11:10;;;;;;;12.25;8.48;;;;;;;10.98;57.52;100253.44;4953159;28;20074;-80
2022/04/24 07:13:36;;;;;;;10.93;8.77;;;;;;;11.05;57.14;100265.13;4964079;28;20035;-80
2022/04/24 07:16:02;;;;;;;9.88;8.77;;;;;;;11.12;57.39;100263.63;4950461;28;20030;-80
2022/04/24 07:18:30;;;;;;;9.77;8.77;;;;;;;11.17;56.99;100258.78;4947002;28;20479;-80
2022/04/24 07:20:56;;;;;;;10.70;8.82;;;;;;;11.22;56.94;100250.53;4950418;29;20454;-81
2022/04/24 07:23:21;;;;;;;10.88;8.65;;;;;;;11.39;57.12;100256.94;4950429;29;20031;-81
2022/04/24 07:25:46;;;;;;;10.82;8.88;;;;;;;11.47;56.86;100265.00;4950885;28;20479;-81
2022/04/24 07:28:14;;;;;;;10.10;9.00;;;;;;;11.53;56.46;100267.94;4949965;29;20501;-80
2022/04/24 07:30:40;;;;;;;11.07;8.98;;;;;;;11.65;55.41;100266.06;4983103;28;20027;-79
2022/04/24 07:33:06;;;;;;;10.73;8.90;;;;;;;11.75;55.82;100269.56;4966206;28;20031;-80
2022/04/24 07:35:34;;;;;;;13.63;9.05;;;;;;;11.82;55.33;100270.69;4951212;28;20442;-79
2022/04/24 07:38:00;;;;;;;16.20;8.95;;;;;;;11.92;55.28;100268.91;4951173;28;20061;-80
2022/04/24 07:40:28;;;;;;;11.95;8.93;;;;;;;12.00;54.80;100268.22;4950660;28;20114;-80
2022/04/24 07:42:59;;;;;;;9.80;8.80;;;;;;;12.11;55.31;100272.56;4950687;28;20723;-79
2022/04/24 07:45:32;;;;;;;11.95;9.13;;;;;;;12.22;55.38;100272.41;4965341;28;20030;-80
2022/04/24 07:47:59;;;;;;;12.07;9.25;;;;;;;12.34;54.65;100265.19;4950102;29;20031;-79
2022/04/24 07:50:26;;;;;;;12.02;8.90;;;;;;;12.42;54.13;100268.84;4951044;28;20062;-80
2022/04/24 07:52:53;;;;;;;9.68;8.27;;;;;;;12.55;54.29;100273.81;4967226;28;20034;-80
2022/04/24 07:55:23;;;;;;;9.68;8.75;;;;;;;12.63;53.47;100279.22;4951655;29;20023;-79
2022/04/24 07:57:52;;;;;;;9.73;8.73;;;;;;;12.71;53.06;100271.44;4949407;29;20023;-80
2022/04/24 08:00:26;;;;;;;10.73;9.15;;;;;;;12.82;52.61;100281.84;4964597;28;20067;-78
2022/04/24 08:02:54;;;;;;;12.15;8.65;;;;;;;12.94;52.66;100274.59;4947876;28;20039;-78
2022/04/24 08:05:21;;;;;;;10.20;8.90;;;;;;;13.06;52.43;100280.53;4949621;29;20020;-78
2022/04/24 08:07:47;;;;;;;9.48;8.52;;;;;;;13.13;51.85;100282.44;4950230;29;20035;-78
2022/04/24 08:10:13;;;;;;;12.38;8.40;;;;;;;13.17;51.51;100275.94;4951795;28;20020;-80
2022/04/24 08:12:39;;;;;;;9.15;8.25;;;;;;;13.33;51.66;100285.06;4980034;28;20368;-80
2022/04/24 08:15:05;;;;;;;10.40;9.13;;;;;;;13.42;51.51;100284.19;4951724;28;20109;-80
2022/04/24 08:17:31;;;;;;;12.23;9.65;;;;;;;13.49;50.57;100282.63;4951793;28;20031;-82
2022/04/24 08:19:56;;;;;;;9.50;8.57;;;;;;;13.62;50.45;100280.50;4951042;29;20051;-80
2022/04/24 08:22:22;;;;;;;9.88;8.68;;;;;;;13.71;50.90;100279.63;4966368;28;20027;-80
2022/04/24 08:24:47;;;;;;;11.20;9.40;;;;;;;13.79;50.73;100276.22;4965094;28;20592;-80
2022/04/24 08:27:13;;;;;;;11.27;9.13;;;;;;;13.84;49.55;100265.19;4950347;28;20034;-80
2022/04/24 08:29:38;;;;;;;10.35;9.30;;;;;;;14.04;50.17;100274.69;4955221;28;20446;-79
2022/04/24 08:32:04;;;;;;;10.25;8.77;;;;;;;14.18;50.27;100279.44;4946554;29;20506;-79
2022/04/24 08:34:30;;;;;;;10.70;9.35;;;;;;;14.26;49.83;100268.94;4949981;29;20039;-80
2022/04/24 08:36:56;;;;;;;10.57;9.57;;;;;;;14.27;48.24;100270.59;4950688;29;20024;-80
2022/04/24 08:39:21;;;;;;;11.02;9.50;;;;;;;14.44;48.38;100279.56;4950303;28;20035;-79
2022/04/24 08:41:47;;;;;;;9.95;8.95;;;;;;;14.50;48.52;100275.47;4951176;29;20069;-79
2022/04/24 08:44:12;;;;;;;10.75;9.25;;;;;;;14.61;48.30;100283.19;4951527;28;20383;-79
2022/04/24 08:46:38;;;;;;;10.73;9.57;;;;;;;14.72;47.64;100285.56;4937989;29;20039;-79
2022/04/24 08:49:05;;;;;;;11.63;9.82;;;;;;;14.83;47.86;100288.00;4946876;29;20054;-79
2022/04/24 08:51:32;;;;;;;10.52;9.50;;;;;;;14.98;48.20;100291.75;4932738;29;20616;-78
2022/04/24 08:53:58;;;;;;;10.63;9.13;;;;;;;15.03;46.85;100284.16;4947945;29;20119;-77
2022/04/24 08:56:23;;;;;;;11.32;9.50;;;;;;;15.14;47.57;100280.41;4951291;29;20496;-79
2022/04/24 08:58:49;;;;;;;12.70;9.93;;;;;;;15.26;46.43;100288.94;4951410;29;20102;-77
2022/04/24 09:01:14;;;;;;;10.93;9.77;;;;;;;15.37;46.88;100286.00;4950618;28;20031;-78
2022/04/24 09:03:40;;;;;;;10.00;9.00;;;;;;;15.49;46.43;100290.03;4958995;28;20423;-79
2022/04/24 09:06:05;;;;;;;12.75;9.93;;;;;;;15.61;46.14;100278.22;4946170;28;20089;-81
2022/04/24 09:08:35;;;;;;;10.35;9.25;;;;;;;15.74;45.67;100287.53;4949085;29;20023;-82
2022/04/24 09:11:07;;;;;;;12.02;10.02;;;;;;;15.87;46.27;100278.09;4950363;28;20031;-79
2022/04/24 09:16:38;;;;;;;15.00;9.55;;;;;;;16.09;45.65;100282.00;4961371;28;20135;-79
2022/04/24 09:19:27;;;;;;;11.48;10.27;;;;;;;16.22;46.48;100290.31;4946608;28;20027;-80
2022/04/24 09:22:22;;;;;;;11.02;9.93;;;;;;;16.26;43.83;100282.84;4943744;28;20027;-80
2022/04/24 09:24:54;;;;;;;11.38;10.23;;;;;;;16.34;43.94;100284.66;4952386;29;20027;-81
2022/04/24 09:27:32;;;;;;;10.93;9.38;;;;;;;16.40;43.81;100291.97;4953718;29;20537;-78
2022/04/24 09:30:13;;;;;;;11.60;9.85;;;;;;;16.51;43.45;100292.50;4984337;28;20042;-79
2022/04/24 09:32:53;;;;;;;13.00;9.45;;;;;;;16.61;44.03;100289.69;4953271;29;20384;-79
2022/04/24 09:35:47;;;;;;;10.60;9.50;;;;;;;16.73;44.14;100291.03;4951174;29;20550;-79
2022/04/24 09:38:17;;;;;;;11.38;10.27;;;;;;;16.84;43.05;100288.06;4952851;28;20039;-78
2022/04/24 09:40:49;;;;;;;11.85;9.85;;;;;;;16.94;43.20;100281.72;4953322;29;20039;-77
2022/04/24 09:43:17;;;;;;;11.40;10.23;;;;;;;16.95;42.15;100278.06;4967529;28;20094;-80
2022/04/24 09:45:50;;;;;;;14.65;9.70;;;;;;;17.06;42.49;100280.38;4953798;29;20027;-81
2022/04/24 09:48:21;;;;;;;11.27;9.82;;;;;;;17.17;43.08;100287.97;4951980;29;20503;-79
2022/04/24 09:50:49;;;;;;;16.02;10.32;;;;;;;17.23;41.32;100287.31;4953274;28;20030;-79
2022/04/24 09:53:19;;;;;;;11.50;10.27;;;;;;;17.34;41.39;100286.94;4946685;29;20479;-79
2022/04/24 09:55:44;;;;;;;12.50;9.82;;;;;;;17.42;41.93;100280.78;4938963;29;20031;-79
2022/04/24 09:58:12;;;;;;;14.13;10.25;;;;;;;17.53;41.44;100285.72;4976978;28;20038;-79
2022/04/24 10:00:37;;;;;;;12.48;10.20;;;;;;;17.61;41.86;100284.84;4945371;29;20254;-79
2022/04/24 10:03:06;;;;;;;13.30;10.63;;;;;;;17.65;40.74;100280.88;4945932;28;20034;-82
2022/04/24 10:05:32;;;;;;;11.23;10.13;;;;;;;17.67;41.07;100281.56;4958154;28;20122;-82
2022/04/24 10:07:59;;;;;;;14.82;10.30;;;;;;;17.80;40.41;100279.16;4945371;29;20039;-81
2022/04/24 10:10:25;;;;;;;11.45;9.55;;;;;;;17.90;40.06;100284.25;4959482;28;20051;-81
2022/04/24 10:12:53;;;;;;;11.07;9.98;;;;;;;18.00;41.00;100276.88;4940054;28;20074;-81
2022/04/24 10:15:21;;;;;;;12.10;10.52;;;;;;;18.04;40.09;100287.00;4956465;28;20106;-81
2022/04/24 10:18:07;;;;;;;11.50;10.40;;;;;;;18.06;40.03;100287.66;4943296;28;20102;-80
2022/04/24 10:20:33;;;;;;;12.77;10.70;;;;;;;18.10;39.91;100286.31;4944245;29;20031;-81
2022/04/24 10:23:00;;;;;;;12.40;10.93;;;;;;;18.19;39.71;100287.06;4958473;28;20824;-82
2022/04/24 10:25:37;;;;;;;12.13;10.88;;;;;;;18.13;38.99;100285.13;4938767;28;20428;-82
2022/04/24 10:28:13;;;;;;;13.75;10.85;;;;;;;18.23;39.76;100282.22;4943827;29;20049;-82
2022/04/24 10:30:44;;;;;;;11.93;10.20;;;;;;;18.35;40.46;100286.13;4943315;29;20042;-81
2022/04/24 10:33:18;;;;;;;11.45;10.10;;;;;;;18.41;38.79;100288.06;4959299;28;20034;-82
2022/04/24 10:35:51;;;;;;;15.45;10.68;;;;;;;18.54;38.98;100283.00;4944680;29;20122;-81
2022/04/24 10:38:19;;;;;;;11.70;10.27;;;;;;;18.60;38.59;100282.28;4944983;28;20020;-80
2022/04/24 10:41:25;;;;;;;12.32;10.52;;;;;;;18.69;39.66;100286.56;4944203;28;20023;-81
2022/04/24 10:43:57;;;;;;;13.45;9.93;;;;;;;18.70;38.41;100284.72;4929218;28;20582;-80
2022/04/24 10:46:33;;;;;;;11.47;9.67;;;;;;;18.79;39.49;100284.47;4974720;28;20027;-80
2022/04/24 10:49:09;;;;;;;11.45;8.93;;;;;;;18.88;39.32;100284.41;4948463;28;20079;-80
2022/04/24 10:51:37;;;;;;;10.23;9.23;;;;;;;18.86;37.40;100289.09;4959536;28;20034;-81
2022/04/24 10:54:08;;;;;;;9.68;8.35;;;;;;;18.98;37.28;100290.31;4945572;28;20093;-80
2022/04/24 10:56:35;;;;;;;10.25;8.10;;;;;;;19.03;37.11;100293.25;4950156;29;20501;-80
2022/04/24 10:59:08;;;;;;;10.73;8.70;;;;;;;19.02;37.01;100283.59;4974204;28;20086;-82
2022/04/24 11:01:38;;;;;;;12.40;9.60;;;;;;;19.01;36.53;100281.94;4938434;28;20098;-82
2022/04/24 11:04:10;;;;;;;9.02;8.13;;;;;;;19.15;37.46;100286.47;4948696;29;20019;-82
2022/04/24 11:06:36;;;;;;;10.80;8.20;;;;;;;19.27;35.94;100287.69;4941095;29;20035;-80
2022/04/24 11:09:07;;;;;;;9.05;7.47;;;;;;;19.29;36.10;100288.31;4930487;29;20456;-81
2022/04/24 11:11:33;;;;;;;8.88;7.43;;;;;;;19.28;35.45;100275.16;4942793;29;20557;-80
2022/04/24 11:14:01;;;;;;;10.95;7.05;;;;;;;19.46;35.33;100293.47;4964750;28;20090;-80
2022/04/24 11:16:27;;;;;;;8.40;7.50;;;;;;;19.50;35.38;100287.56;4949399;29;20034;-81
2022/04/24 11:18:52;;;;;;;8.02;7.28;;;;;;;19.67;36.01;100293.59;4943676;29;20399;-81
2022/04/24 11:21:19;;;;;;;8.82;7.80;;;;;;;19.71;35.44;100289.53;4948367;29;20038;-80
2022/04/24 11:23:45;;;;;;;8.90;7.20;;;;;;;19.80;35.96;100295.59;4948389;29;20027;-80
2022/04/24 11:26:12;;;;;;;9.15;7.53;;;;;;;19.87;36.21;100291.97;4948568;29;20027;-80